createdAt,value
2023-04-08T00:04:19.125Z,10.32
2023-04-08T00:11:01.610Z,10.60
2023-04-08T00:17:45.609Z,10.02
2023-04-08T00:24:34.703Z,9.73
2023-04-08T00:31:17.153Z,10.32
2023-04-08T00:37:59.480Z,10.57
2023-04-08T00:44:42.064Z,10.88
2023-04-08T00:51:24.499Z,12.63
2023-04-08T00:58:06.841Z,11.35
2023-04-08T01:05:13.585Z,10.25
2023-04-08T01:11:57.222Z,11.07
2023-04-08T01:18:41.650Z,10.70
2023-04-08T01:25:30.383Z,10.52
2023-04-08T01:32:14.214Z,11.15
2023-04-08T01:38:56.728Z,11.05
2023-04-08T01:45:39.136Z,11.77
2023-04-08T01:52:23.204Z,10.90
2023-04-08T01:59:11.602Z,10.95
2023-04-08T02:05:54.066Z,11.77
2023-04-08T02:12:36.623Z,12.63
2023-04-08T02:19:31.545Z,12.77
2023-04-08T02:26:15.877Z,13.32
2023-04-08T02:32:59.330Z,12.43
2023-04-08T02:39:41.854Z,12.20
2023-04-08T02:46:26.298Z,12.68
2023-04-08T02:53:09.410Z,12.07
2023-04-08T02:59:52.697Z,12.30
2023-04-08T03:06:35.145Z,13.18
2023-04-08T03:13:17.553Z,12.82
2023-04-08T03:20:00.651Z,13.85
2023-04-08T03:26:42.943Z,13.32
2023-04-08T03:33:25.244Z,14.23
2023-04-08T03:40:08.348Z,15.20
2023-04-08T03:46:50.886Z,14.98
2023-04-08T03:53:33.212Z,15.68
2023-04-08T04:00:21.829Z,15.90
2023-04-08T04:07:04.693Z,14.73
2023-04-08T04:13:47.014Z,15.85
2023-04-08T04:20:30.249Z,16.05
2023-04-08T04:27:12.560Z,16.15
2023-04-08T04:33:55.039Z,16.52
2023-04-08T04:40:37.580Z,16.85
2023-04-08T04:47:20.225Z,16.70
2023-04-08T04:54:02.657Z,17.35
2023-04-08T05:00:46.607Z,17.88
2023-04-08T05:07:28.907Z,16.25
2023-04-08T05:14:11.191Z,17.88
2023-04-08T05:20:53.522Z,18.38
2023-04-08T05:27:36.117Z,17.65
2023-04-08T05:34:22.817Z,18.23
2023-04-08T05:41:05.437Z,19.20
2023-04-08T05:47:47.877Z,17.45
2023-04-08T05:54:30.329Z,17.92
2023-04-08T06:01:12.662Z,18.65
2023-04-08T06:07:54.947Z,19.02
2023-04-08T06:14:37.245Z,17.67
2023-04-08T06:21:19.653Z,18.10
2023-04-08T06:28:03.368Z,18.90
2023-04-08T06:34:46.228Z,16.40
2023-04-08T06:41:28.538Z,16.45
2023-04-08T06:48:17.891Z,16.50
2023-04-08T06:55:00.247Z,16.05
2023-04-08T07:01:42.639Z,15.25
2023-04-08T07:08:24.999Z,14.57
2023-04-08T07:15:08.056Z,16.02
2023-04-08T07:21:50.554Z,12.90
2023-04-08T07:28:32.971Z,12.90
2023-04-08T07:35:19.075Z,12.23
2023-04-08T07:42:01.363Z,12.18
2023-04-08T07:48:43.687Z,12.82
2023-04-08T07:55:25.982Z,12.23
2023-04-08T08:02:08.619Z,12.20
2023-04-08T08:08:50.998Z,10.85
2023-04-08T08:15:33.501Z,11.52
2023-04-08T08:22:15.978Z,11.73
2023-04-08T08:28:58.422Z,11.30
2023-04-08T08:35:40.756Z,12.32
2023-04-08T08:42:24.743Z,11.40
2023-04-08T08:49:07.193Z,11.25
2023-04-08T08:56:16.609Z,11.55
2023-04-08T09:02:52.500Z,11.38
2023-04-08T09:09:51.982Z,10.98
2023-04-08T09:16:34.426Z,10.95
2023-04-08T09:23:16.758Z,11.30
2023-04-08T09:30:14.501Z,10.55
2023-04-08T09:36:56.963Z,11.07
2023-04-08T09:43:50.127Z,11.77
2023-04-08T09:50:36.394Z,10.77
2023-04-08T09:57:37.628Z,10.27
2023-04-08T10:04:22.589Z,10.45
2023-04-08T10:11:05.287Z,10.48
2023-04-08T10:17:47.922Z,10.32
2023-04-08T10:24:30.364Z,10.15
2023-04-08T10:31:22.255Z,11.88
2023-04-08T10:38:05.007Z,10.57
2023-04-08T10:44:47.393Z,11.25
2023-04-08T10:51:34.201Z,9.90
2023-04-08T10:58:16.906Z,10.60
2023-04-08T11:04:59.228Z,9.18
2023-04-08T11:11:43.156Z,10.05
2023-04-08T11:18:26.073Z,9.60
2023-04-08T11:25:10.290Z,9.43
2023-04-08T11:31:52.792Z,9.35
2023-04-08T11:38:40.377Z,9.32
2023-04-08T11:45:22.786Z,8.82
2023-04-08T11:52:05.943Z,9.40
2023-04-08T11:58:48.364Z,8.90
2023-04-08T12:05:30.701Z,8.98
2023-04-08T12:12:13.057Z,8.50
2023-04-08T12:18:55.439Z,9.27
2023-04-08T12:25:37.842Z,8.93
2023-04-08T12:32:20.444Z,9.43
2023-04-08T12:39:02.812Z,9.68
2023-04-08T12:45:45.176Z,8.52
2023-04-08T12:52:27.513Z,8.57
2023-04-08T12:59:10.252Z,8.50
2023-04-08T13:05:52.751Z,8.40
2023-04-08T13:12:35.161Z,9.32
2023-04-08T13:19:17.505Z,9.70
2023-04-08T13:26:00.051Z,9.52
2023-04-08T13:32:42.505Z,8.93
2023-04-08T13:39:24.826Z,9.18
2023-04-08T13:46:08.056Z,9.45
2023-04-08T13:52:50.655Z,8.75
2023-04-08T13:59:33.874Z,8.88
2023-04-08T14:06:16.455Z,9.05
2023-04-08T14:12:58.796Z,8.95
2023-04-08T14:19:41.982Z,8.55
2023-04-08T14:26:24.584Z,8.40
2023-04-08T14:33:07.071Z,8.10
2023-04-08T14:39:49.905Z,7.25
2023-04-08T14:46:32.469Z,7.05
2023-04-08T14:53:14.790Z,6.00
2023-04-08T14:59:57.116Z,5.88
2023-04-08T15:06:40.405Z,5.80
2023-04-08T15:13:23.138Z,5.93
2023-04-08T15:20:06.402Z,5.32
2023-04-08T15:26:48.716Z,4.65
2023-04-08T15:33:31.566Z,4.68
2023-04-08T15:40:13.864Z,4.75
2023-04-08T15:46:56.489Z,4.38
2023-04-08T15:53:42.006Z,4.70
2023-04-08T16:00:24.475Z,4.63
2023-04-08T16:07:07.405Z,3.95
2023-04-08T16:13:49.761Z,3.75
2023-04-08T16:20:32.237Z,4.70
2023-04-08T16:27:14.604Z,4.60
2023-04-08T16:33:56.978Z,5.22
2023-04-08T16:40:39.448Z,4.93
2023-04-08T16:47:22.250Z,4.22
2023-04-08T16:54:04.835Z,5.55
2023-04-08T17:00:47.303Z,4.18
2023-04-08T17:07:29.698Z,4.55
2023-04-08T17:14:12.177Z,4.22
2023-04-08T17:20:56.000Z,4.60
2023-04-08T17:27:38.355Z,4.43
2023-04-08T17:34:20.727Z,4.72
2023-04-08T17:41:04.163Z,5.28
2023-04-08T17:47:46.534Z,5.35
2023-04-08T17:54:28.871Z,5.50
2023-04-08T18:01:11.568Z,5.80
2023-04-08T18:07:53.900Z,5.93
2023-04-08T18:14:36.378Z,6.80
2023-04-08T18:21:18.696Z,5.82
2023-04-08T18:28:01.155Z,5.55
2023-04-08T18:34:43.449Z,6.22
2023-04-08T18:41:26.341Z,6.22
2023-04-08T18:48:08.820Z,6.53
2023-04-08T18:54:51.599Z,6.43
2023-04-08T19:01:36.109Z,6.97
2023-04-08T19:08:18.484Z,6.85
2023-04-08T19:15:00.768Z,7.10
2023-04-08T19:21:43.457Z,6.65
2023-04-08T19:28:26.133Z,6.60
2023-04-08T19:35:11.656Z,6.25
2023-04-08T19:41:53.962Z,6.80
2023-04-08T19:48:36.309Z,8.52
2023-04-08T19:55:19.077Z,7.68
2023-04-08T20:02:03.298Z,8.18
2023-04-08T20:08:46.275Z,7.97
2023-04-08T20:15:28.639Z,8.05
2023-04-08T20:22:11.053Z,8.57
2023-04-08T20:28:55.141Z,7.80
2023-04-08T20:35:39.517Z,9.15
2023-04-08T20:42:21.826Z,8.52
2023-04-08T20:49:04.876Z,8.45
2023-04-08T20:55:47.240Z,8.85
2023-04-08T21:02:29.783Z,9.57
2023-04-08T21:09:14.817Z,9.88
2023-04-08T21:15:57.165Z,9.30
2023-04-08T21:22:40.230Z,8.88
2023-04-08T21:29:22.473Z,9.23
2023-04-08T21:36:06.222Z,10.90
2023-04-08T21:42:48.539Z,13.48
2023-04-08T21:49:31.412Z,9.52
2023-04-08T21:56:13.978Z,9.45
2023-04-08T22:02:56.518Z,9.40
2023-04-08T22:09:39.044Z,8.95
2023-04-08T22:16:21.457Z,8.88
2023-04-08T22:23:04.034Z,10.30
2023-04-08T22:29:46.523Z,9.45
2023-04-08T22:36:28.869Z,9.20
2023-04-08T22:43:11.341Z,10.10
2023-04-08T22:49:53.660Z,9.50
2023-04-08T22:56:36.553Z,10.68
2023-04-08T23:03:18.915Z,11.00
2023-04-08T23:10:01.349Z,11.32
2023-04-08T23:16:43.694Z,12.38
2023-04-08T23:23:26.333Z,12.52
2023-04-08T23:30:09.196Z,11.75
2023-04-08T23:36:51.668Z,11.27
2023-04-08T23:43:34.566Z,11.93
2023-04-08T23:50:17.090Z,12.10
2023-04-08T23:57:03.710Z,12.95
